Troy, Ohio
Current Conditions -  °F | °C
As of 11:52 PM on Saturday 20 Dec 2014 (Local Time) from KDAY Reporting Station
Haze Haze  
Wind Chill: 25°   Ceiling: 2500
Heat Index: 25°   Visibility: 6mi
Dew Point: 21°   Wind: 0mph
Humidity: 86%   Direction: NA
Pressure: 30.29"   Gusts: NA
Location:  40.04°N, 84.2°W
Report Text: KDAY 210452Z 00000KT 6SM BR BKN025 M04/M06 A3029 RMK AO2
Loading
Personal Weather Stations






























Interactive Weather Map New forecast layout! Learn more

10-Day Weather Forecast

Advertisements
Track Severe Weather on mobile